Buffalo, Minnesota
Current Conditions -  °F | °C
As of 9:55 AM on Friday 31 Oct 2014 (Local Time) from KCFE Reporting Station
Clear Clear  
Wind Chill: 20°   Ceiling: Unl
Heat Index: 29°   Visibility: 10mi
Dew Point: 17°   Wind: 10mph
Humidity: 61%   Direction: 360°N
Pressure: 30.57"   Gusts: 17mph
Location:  45.17°N, 93.88°W
Report Text: KCFE 311455Z AUTO 36009G15KT 10SM CLR M01/M08 A3057 RMK AO2 T10141081
Loading
Personal Weather Stations






























Interactive Weather Map
Tropical Storm Tracking
New forecast layout! Learn more

10-Day Weather Forecast

Advertisements
Track Severe Weather on mobile